Terminal Aerodrome Forecast
Issued by NWS Cleveland, OH

Home | Current Version | Previous Version | Text Only | Print | Product List | Glossary On
Versions: 1 2 3 4 5 6 7 8 9 10 11 12 13 14 15 16 17 18 19 20
000
FTUS41 KCLE 050200 AAA
TAFMFD
TAF AMD
KMFD 050206Z 0502/0524 25006KT 5SM BR BKN045 BKN080
      TEMPO 0503/0506 2SM BR
     FM051200 VRB04KT 5SM -SHRA BR OVC025
      TEMPO 0512/0515 BKN010 OVC025=

USA.gov is the U.S. government's official web portal to all federal, state and local government web resources and services.